createdAt,value
2023-05-20T00:01:23.318Z,12.29
2023-05-20T00:03:51.157Z,12.25
2023-05-20T00:06:19.001Z,12.19
2023-05-20T00:08:46.678Z,12.15
2023-05-20T00:11:14.386Z,12.15
2023-05-20T00:13:42.032Z,12.18
2023-05-20T00:16:09.917Z,12.15
2023-05-20T00:18:37.603Z,12.09
2023-05-20T00:21:05.425Z,12.06
2023-05-20T00:23:33.087Z,12.02
2023-05-20T00:26:01.114Z,12.01
2023-05-20T00:28:29.018Z,12.05
2023-05-20T00:30:56.788Z,12.06
2023-05-20T00:33:24.547Z,12.06
2023-05-20T00:35:52.312Z,12.04
2023-05-20T00:38:20.028Z,12.01
2023-05-20T00:40:47.796Z,12.04
2023-05-20T00:43:15.921Z,12.06
2023-05-20T00:45:43.638Z,12.08
2023-05-20T00:48:11.657Z,12.11
2023-05-20T00:50:39.507Z,12.14
2023-05-20T00:53:07.275Z,12.22
2023-05-20T00:55:36.176Z,12.28
2023-05-20T00:58:04.181Z,12.29
2023-05-20T01:00:32.003Z,12.28
2023-05-20T01:02:59.878Z,12.27
2023-05-20T01:05:27.740Z,12.27
2023-05-20T01:07:55.632Z,12.32
2023-05-20T01:10:23.281Z,12.32
2023-05-20T01:12:50.968Z,12.31
2023-05-20T01:15:18.596Z,12.29
2023-05-20T01:17:46.986Z,12.29
2023-05-20T01:20:14.774Z,12.31
2023-05-20T01:22:42.471Z,12.33
2023-05-20T01:25:10.128Z,12.30
2023-05-20T01:27:38.145Z,12.25
2023-05-20T01:30:05.760Z,12.20
2023-05-20T01:32:33.461Z,12.16
2023-05-20T01:35:01.181Z,12.17
2023-05-20T01:37:29.186Z,12.14
2023-05-20T01:39:57.147Z,12.10
2023-05-20T01:42:24.813Z,12.07
2023-05-20T01:44:52.503Z,12.07
2023-05-20T01:47:20.236Z,12.13
2023-05-20T01:49:48.100Z,12.15
2023-05-20T01:52:15.990Z,12.16
2023-05-20T01:54:43.669Z,12.13
2023-05-20T01:57:11.393Z,12.15
2023-05-20T01:59:39.891Z,12.20
2023-05-20T02:02:07.696Z,12.21
2023-05-20T02:04:35.612Z,12.11
2023-05-20T02:07:03.273Z,12.03
2023-05-20T02:09:30.983Z,12.01
2023-05-20T02:11:58.628Z,12.01
2023-05-20T02:14:26.276Z,12.08
2023-05-20T02:16:54.051Z,12.10
2023-05-20T02:19:24.082Z,12.13
2023-05-20T02:21:51.919Z,12.14
2023-05-20T02:24:21.331Z,12.18
2023-05-20T02:26:51.376Z,12.22
2023-05-20T02:29:20.218Z,12.21
2023-05-20T02:31:47.946Z,12.20
2023-05-20T02:34:15.604Z,12.20
2023-05-20T02:36:43.322Z,12.19
2023-05-20T02:39:10.979Z,12.25
2023-05-20T02:41:38.599Z,12.22
2023-05-20T02:44:06.396Z,12.18
2023-05-20T02:46:34.048Z,12.15
2023-05-20T02:49:01.741Z,12.12
2023-05-20T02:51:29.413Z,12.14
2023-05-20T02:53:57.068Z,12.15
2023-05-20T02:56:24.819Z,12.13
2023-05-20T02:58:52.518Z,12.13
2023-05-20T03:01:20.309Z,12.12
2023-05-20T03:03:48.023Z,12.15
2023-05-20T03:06:15.699Z,12.18
2023-05-20T03:08:43.413Z,12.16
2023-05-20T03:11:11.116Z,12.15
2023-05-20T03:13:38.864Z,12.16
2023-05-20T03:16:06.605Z,12.19
2023-05-20T03:18:34.649Z,12.23
2023-05-20T03:21:02.865Z,12.24
2023-05-20T03:23:30.824Z,12.25
2023-05-20T03:25:58.520Z,12.25
2023-05-20T03:28:26.173Z,12.28
2023-05-20T03:30:53.887Z,12.32
2023-05-20T03:33:22.917Z,12.34
2023-05-20T03:35:50.674Z,12.36
2023-05-20T03:38:18.350Z,12.35
2023-05-20T03:40:46.089Z,12.36
2023-05-20T03:43:13.857Z,12.41
2023-05-20T03:45:41.624Z,12.42
2023-05-20T03:48:09.502Z,12.42
2023-05-20T03:50:37.354Z,12.44
2023-05-20T03:53:05.226Z,12.48
2023-05-20T03:55:34.311Z,12.56
2023-05-20T03:58:02.706Z,12.59
2023-05-20T04:00:31.863Z,12.60
2023-05-20T04:02:59.901Z,12.60
2023-05-20T04:05:28.140Z,12.62
2023-05-20T04:07:57.696Z,12.69
2023-05-20T04:10:25.686Z,12.72
2023-05-20T04:12:54.195Z,12.73
2023-05-20T04:15:24.131Z,12.75
2023-05-20T04:17:52.594Z,12.77
2023-05-20T04:20:20.356Z,12.83
2023-05-20T04:22:48.539Z,12.85
2023-05-20T04:25:17.153Z,12.85
2023-05-20T04:27:45.084Z,12.85
2023-05-20T04:30:12.951Z,12.87
2023-05-20T04:32:41.861Z,12.93
2023-05-20T04:35:12.177Z,12.95
2023-05-20T04:37:40.353Z,12.96
2023-05-20T04:40:09.483Z,12.98
2023-05-20T04:42:38.072Z,12.99
2023-05-20T04:45:06.195Z,13.05
2023-05-20T04:47:39.007Z,13.05
2023-05-20T04:50:09.091Z,13.05
2023-05-20T04:52:36.864Z,13.05
2023-05-20T04:55:04.640Z,13.07
2023-05-20T04:57:34.849Z,13.10
2023-05-20T05:00:02.751Z,13.12
2023-05-20T05:02:30.516Z,13.11
2023-05-20T05:04:58.547Z,13.11
2023-05-20T05:07:26.414Z,13.11
2023-05-20T05:09:54.288Z,13.14
2023-05-20T05:12:22.055Z,13.15
2023-05-20T05:14:49.860Z,13.16
2023-05-20T05:17:17.587Z,13.17
2023-05-20T05:19:45.345Z,13.18
2023-05-20T05:22:13.208Z,13.22
2023-05-20T05:24:40.988Z,13.23
2023-05-20T05:27:08.841Z,13.22
2023-05-20T05:29:36.601Z,13.23
2023-05-20T05:32:04.415Z,13.25
2023-05-20T05:34:32.235Z,13.30
2023-05-20T05:36:59.997Z,13.32
2023-05-20T05:39:27.662Z,13.32
2023-05-20T05:41:56.361Z,13.34
2023-05-20T05:44:24.207Z,13.37
2023-05-20T05:46:52.051Z,13.42
2023-05-20T05:49:19.936Z,13.47
2023-05-20T05:51:47.704Z,13.48
2023-05-20T05:54:15.719Z,13.49
2023-05-20T05:56:43.543Z,13.51
2023-05-20T05:59:11.309Z,13.56
2023-05-20T06:01:39.092Z,13.58
2023-05-20T06:04:07.137Z,13.60
2023-05-20T06:06:35.003Z,13.62
2023-05-20T06:09:02.775Z,13.66
2023-05-20T06:11:30.755Z,13.74
2023-05-20T06:13:58.914Z,13.78
2023-05-20T06:16:26.704Z,13.81
2023-05-20T06:18:57.670Z,13.83
2023-05-20T06:21:26.100Z,13.87
2023-05-20T06:23:53.803Z,13.93
2023-05-20T06:26:21.630Z,13.95
2023-05-20T06:28:49.389Z,13.96
2023-05-20T06:31:17.185Z,13.95
2023-05-20T06:33:45.018Z,13.95
2023-05-20T06:36:12.783Z,14.01
2023-05-20T06:38:40.548Z,14.04
2023-05-20T06:41:08.316Z,14.06
2023-05-20T06:43:36.078Z,14.09
2023-05-20T06:46:03.814Z,14.14
2023-05-20T06:48:31.609Z,14.19
2023-05-20T06:50:59.584Z,14.21
2023-05-20T06:53:27.448Z,14.21
2023-05-20T06:55:56.230Z,14.24
2023-05-20T06:58:23.936Z,14.26
2023-05-20T07:00:51.764Z,14.33
2023-05-20T07:03:19.599Z,14.35
2023-05-20T07:05:47.501Z,14.36
2023-05-20T07:08:15.265Z,14.36
2023-05-20T07:10:43.643Z,14.37
2023-05-20T07:13:11.410Z,14.42
2023-05-20T07:15:39.109Z,14.43
2023-05-20T07:18:06.998Z,14.43
2023-05-20T07:20:34.792Z,14.45
2023-05-20T07:23:04.399Z,14.47
2023-05-20T07:25:32.317Z,14.51
2023-05-20T07:28:00.854Z,14.52
2023-05-20T07:30:28.829Z,14.53
2023-05-20T07:32:57.009Z,14.53
2023-05-20T07:35:24.960Z,14.57
2023-05-20T07:37:52.828Z,14.63
2023-05-20T07:40:20.698Z,14.64
2023-05-20T07:42:48.591Z,14.66
2023-05-20T07:45:16.325Z,14.66
2023-05-20T07:47:44.164Z,14.63
2023-05-20T07:50:11.954Z,14.70
2023-05-20T07:55:10.465Z,14.75
2023-05-20T07:57:38.223Z,14.76
2023-05-20T08:00:06.700Z,14.78
2023-05-20T08:02:34.614Z,14.84
2023-05-20T08:05:02.687Z,14.88
2023-05-20T08:07:30.607Z,14.89
2023-05-20T08:09:58.381Z,14.90
2023-05-20T08:12:26.189Z,14.93
2023-05-20T08:14:54.002Z,14.99
2023-05-20T08:17:21.795Z,15.00
2023-05-20T08:19:49.633Z,14.97
2023-05-20T08:22:17.397Z,14.98
2023-05-20T08:24:45.165Z,15.01
2023-05-20T08:27:12.925Z,15.07
2023-05-20T08:29:40.894Z,15.06
2023-05-20T08:32:08.759Z,15.03
2023-05-20T08:34:37.101Z,15.03
2023-05-20T08:37:04.821Z,15.06
2023-05-20T08:39:32.509Z,15.11
2023-05-20T08:42:00.216Z,15.12
2023-05-20T08:44:27.904Z,15.12
2023-05-20T08:46:55.681Z,15.14
2023-05-20T08:49:23.335Z,15.15
2023-05-20T08:51:51.057Z,15.22
2023-05-20T08:54:19.296Z,15.26
2023-05-20T08:56:46.984Z,15.28
2023-05-20T08:59:14.898Z,15.29
2023-05-20T09:01:45.785Z,15.32
2023-05-20T09:04:13.903Z,15.39
2023-05-20T09:06:42.178Z,15.46
2023-05-20T09:09:10.171Z,15.50
2023-05-20T09:11:37.807Z,15.53
2023-05-20T09:14:05.521Z,15.58
2023-05-20T09:16:33.213Z,15.63
2023-05-20T09:19:01.313Z,15.71
2023-05-20T09:21:29.020Z,15.75
2023-05-20T09:23:59.725Z,15.77
2023-05-20T09:26:27.375Z,15.80
2023-05-20T09:28:55.145Z,15.83
2023-05-20T09:31:22.951Z,15.92
2023-05-20T09:33:52.386Z,16.00
2023-05-20T09:36:20.032Z,16.05
2023-05-20T09:38:47.722Z,16.10
2023-05-20T09:41:18.658Z,16.12
2023-05-20T09:43:47.275Z,16.17
2023-05-20T09:46:16.758Z,16.27
2023-05-20T09:48:44.533Z,16.34
2023-05-20T09:51:13.502Z,16.39
2023-05-20T09:53:41.256Z,16.45
2023-05-20T09:56:08.930Z,16.62
2023-05-20T09:58:37.110Z,16.77
2023-05-20T10:01:04.828Z,16.85
2023-05-20T10:03:33.684Z,16.92
2023-05-20T10:06:01.854Z,16.97
2023-05-20T10:08:29.548Z,17.04
2023-05-20T10:10:57.221Z,17.16
2023-05-20T10:13:24.941Z,17.30
2023-05-20T10:15:52.660Z,17.34
2023-05-20T10:18:20.346Z,17.37
2023-05-20T10:20:48.257Z,17.51
2023-05-20T10:23:16.028Z,17.62
2023-05-20T10:25:43.681Z,17.71
2023-05-20T10:28:11.607Z,17.82
2023-05-20T10:30:41.561Z,17.98
2023-05-20T10:33:11.717Z,18.10
2023-05-20T10:35:39.410Z,18.21
2023-05-20T10:38:07.108Z,18.31
2023-05-20T10:40:35.002Z,18.38
2023-05-20T10:43:02.944Z,18.49
2023-05-20T10:45:32.960Z,18.65
2023-05-20T10:48:00.801Z,18.83
2023-05-20T10:50:29.305Z,19.01
2023-05-20T10:52:57.170Z,19.18
2023-05-20T10:55:24.852Z,19.25
2023-05-20T10:57:52.888Z,19.30
2023-05-20T11:00:20.944Z,19.31
2023-05-20T11:02:48.658Z,19.35
2023-05-20T11:05:16.371Z,19.45
2023-05-20T11:07:44.091Z,19.57
2023-05-20T11:10:12.102Z,19.72
2023-05-20T11:12:39.831Z,19.83
2023-05-20T11:15:08.255Z,19.94
2023-05-20T11:17:36.001Z,20.10
2023-05-20T11:20:04.900Z,20.22
2023-05-20T11:22:32.561Z,20.33
2023-05-20T11:25:00.251Z,20.48
2023-05-20T11:27:27.933Z,20.54
2023-05-20T11:29:55.792Z,20.64
2023-05-20T11:32:24.799Z,20.75
2023-05-20T11:34:53.613Z,20.85
2023-05-20T11:37:23.682Z,20.97
2023-05-20T11:39:52.022Z,21.05
2023-05-20T11:42:21.015Z,21.14
2023-05-20T11:44:49.163Z,21.29
2023-05-20T11:47:19.282Z,21.38
2023-05-20T11:49:47.087Z,21.47
2023-05-20T11:52:14.756Z,21.54
2023-05-20T11:54:42.418Z,21.60
2023-05-20T11:57:10.172Z,21.67
2023-05-20T11:59:37.939Z,21.73
2023-05-20T12:02:05.599Z,21.74
2023-05-20T12:04:33.381Z,21.79
2023-05-20T12:07:01.524Z,21.87
2023-05-20T12:09:29.250Z,21.92
2023-05-20T12:11:57.296Z,21.99
2023-05-20T12:14:24.953Z,22.08
2023-05-20T12:16:53.849Z,22.17
2023-05-20T12:19:21.634Z,22.24
2023-05-20T12:21:49.545Z,22.31
2023-05-20T12:24:17.236Z,22.34
2023-05-20T12:26:44.963Z,22.41
2023-05-20T12:29:12.871Z,22.48
2023-05-20T12:31:40.948Z,22.53
2023-05-20T12:34:08.601Z,22.61
2023-05-20T12:36:36.290Z,22.65
2023-05-20T12:39:04.409Z,22.69
2023-05-20T12:41:32.109Z,22.75
2023-05-20T12:44:00.254Z,22.79
2023-05-20T12:46:27.903Z,22.83
2023-05-20T12:48:55.581Z,22.88
2023-05-20T12:51:23.222Z,22.86
2023-05-20T12:53:51.127Z,22.80
2023-05-20T12:56:19.793Z,22.82
2023-05-20T12:58:47.469Z,22.85
2023-05-20T13:01:15.208Z,22.87
2023-05-20T13:03:43.076Z,22.85
2023-05-20T13:06:10.925Z,22.78
2023-05-20T13:08:38.580Z,22.77
2023-05-20T13:11:06.332Z,22.85
2023-05-20T13:13:33.993Z,22.91
2023-05-20T13:16:01.658Z,22.95
2023-05-20T13:18:29.319Z,22.94
2023-05-20T13:20:57.333Z,22.92
2023-05-20T13:23:24.990Z,22.93
2023-05-20T13:25:53.064Z,22.99
2023-05-20T13:28:21.652Z,23.04
2023-05-20T13:30:49.365Z,23.06
2023-05-20T13:33:17.032Z,23.09
2023-05-20T13:35:44.687Z,23.14
2023-05-20T13:38:12.454Z,23.13
2023-05-20T13:40:40.146Z,23.09
2023-05-20T13:43:07.855Z,23.03
2023-05-20T13:45:35.514Z,22.99
2023-05-20T13:48:03.766Z,22.98
2023-05-20T13:50:31.545Z,23.01
2023-05-20T13:52:59.206Z,23.02
2023-05-20T13:55:27.163Z,23.04
2023-05-20T13:57:55.841Z,23.08
2023-05-20T14:00:23.520Z,23.08
2023-05-20T14:02:51.345Z,23.08
2023-05-20T14:05:19.354Z,23.11
2023-05-20T14:07:47.009Z,23.10
2023-05-20T14:10:14.790Z,23.09
2023-05-20T14:12:43.144Z,23.11
2023-05-20T14:15:11.129Z,23.10
2023-05-20T14:17:38.802Z,23.10
2023-05-20T14:20:06.669Z,23.10
2023-05-20T14:22:34.512Z,23.10
2023-05-20T14:25:02.181Z,23.10
2023-05-20T14:27:29.839Z,23.08
2023-05-20T14:29:57.505Z,23.06
2023-05-20T14:32:25.272Z,23.06
2023-05-20T14:34:54.050Z,23.05
2023-05-20T14:37:23.024Z,23.04
2023-05-20T14:39:50.784Z,23.04
2023-05-20T14:42:18.430Z,23.03
2023-05-20T14:44:47.286Z,23.01
2023-05-20T14:47:19.426Z,23.00
2023-05-20T14:49:47.131Z,22.95
2023-05-20T14:52:14.778Z,22.93
2023-05-20T14:54:42.445Z,22.89
2023-05-20T14:57:10.263Z,22.85
2023-05-20T14:59:37.932Z,22.83
2023-05-20T15:02:06.630Z,22.80
2023-05-20T15:04:34.418Z,22.77
2023-05-20T15:07:02.088Z,22.74
2023-05-20T15:09:29.797Z,22.73
2023-05-20T15:11:57.482Z,22.72
2023-05-20T15:14:25.171Z,22.70
2023-05-20T15:16:52.863Z,22.69
2023-05-20T15:19:20.741Z,22.68
2023-05-20T15:21:49.775Z,22.68
2023-05-20T15:24:17.478Z,22.65
2023-05-20T15:26:45.165Z,22.64
2023-05-20T15:29:12.834Z,22.62
2023-05-20T15:31:40.516Z,22.60
2023-05-20T15:34:08.252Z,22.58
2023-05-20T15:36:35.978Z,22.56
2023-05-20T15:39:04.121Z,22.54
2023-05-20T15:41:32.273Z,22.52
2023-05-20T15:43:59.927Z,22.49
2023-05-20T15:46:27.705Z,22.46
2023-05-20T15:48:56.434Z,22.43
2023-05-20T15:51:24.141Z,22.38
2023-05-20T15:53:51.842Z,22.32
2023-05-20T15:56:19.521Z,22.27
2023-05-20T15:58:47.151Z,22.20
2023-05-20T16:01:14.844Z,22.13
2023-05-20T16:03:42.664Z,22.05
2023-05-20T16:06:11.063Z,21.99
2023-05-20T16:08:38.742Z,21.93
2023-05-20T16:11:07.619Z,21.85
2023-05-20T16:13:35.431Z,21.79
2023-05-20T16:16:03.226Z,21.76
2023-05-20T16:18:31.014Z,21.70
2023-05-20T16:20:58.803Z,21.66
2023-05-20T16:23:26.582Z,21.63
2023-05-20T16:25:54.494Z,21.56
2023-05-20T16:28:22.660Z,21.51
2023-05-20T16:30:50.372Z,21.49
2023-05-20T16:33:18.240Z,21.45
2023-05-20T16:35:46.264Z,21.39
2023-05-20T16:38:14.017Z,21.34
2023-05-20T16:40:41.990Z,21.29
2023-05-20T16:43:09.754Z,21.22
2023-05-20T16:45:37.546Z,21.16
2023-05-20T16:48:05.436Z,21.10
2023-05-20T16:50:33.487Z,21.02
2023-05-20T16:53:01.842Z,20.95
2023-05-20T16:55:30.141Z,20.87
2023-05-20T16:57:58.000Z,20.78
2023-05-20T17:00:25.852Z,20.71
2023-05-20T17:02:53.642Z,20.65
2023-05-20T17:05:21.475Z,20.58
2023-05-20T17:07:50.066Z,20.53
2023-05-20T17:10:17.929Z,20.48
2023-05-20T17:12:45.893Z,20.43
2023-05-20T17:15:13.674Z,20.38
2023-05-20T17:17:41.879Z,20.33
2023-05-20T17:20:09.797Z,20.28
2023-05-20T17:22:37.876Z,20.23
2023-05-20T17:25:05.743Z,20.18
2023-05-20T17:27:33.818Z,20.14
2023-05-20T17:30:01.595Z,20.15
2023-05-20T17:32:29.461Z,20.11
2023-05-20T17:34:57.336Z,20.06
2023-05-20T17:37:25.073Z,20.04
2023-05-20T17:39:53.229Z,20.01
2023-05-20T17:42:22.112Z,19.98
2023-05-20T17:44:49.902Z,19.95
2023-05-20T17:47:17.671Z,19.90
2023-05-20T17:49:45.737Z,19.87
2023-05-20T17:52:13.496Z,19.82
2023-05-20T17:54:41.366Z,19.75
2023-05-20T17:57:09.234Z,19.69
2023-05-20T17:59:38.330Z,19.63
2023-05-20T18:02:06.544Z,19.55
2023-05-20T18:04:34.317Z,19.50
2023-05-20T18:07:04.179Z,19.44
2023-05-20T18:09:32.151Z,19.36
2023-05-20T18:11:59.916Z,19.29
2023-05-20T18:14:27.678Z,19.25
2023-05-20T18:16:55.875Z,19.25
2023-05-20T18:19:24.378Z,19.20
2023-05-20T18:21:52.213Z,19.14
2023-05-20T18:24:20.796Z,19.07
2023-05-20T18:26:48.553Z,19.02
2023-05-20T18:29:16.318Z,18.94
2023-05-20T18:31:44.222Z,18.89
2023-05-20T18:34:12.047Z,18.83
2023-05-20T18:36:39.817Z,18.75
2023-05-20T18:39:07.887Z,18.68
2023-05-20T18:41:46.778Z,18.63
2023-05-20T18:44:16.520Z,18.60
2023-05-20T18:46:44.279Z,18.61
2023-05-20T18:49:12.148Z,18.57
2023-05-20T18:51:39.979Z,18.51
2023-05-20T18:54:07.903Z,18.48
2023-05-20T18:56:36.194Z,18.45
2023-05-20T18:59:04.023Z,18.42
2023-05-20T19:01:34.167Z,18.39
2023-05-20T19:04:02.221Z,18.37
2023-05-20T19:06:30.083Z,18.39
2023-05-20T19:08:58.060Z,18.38
2023-05-20T19:11:25.814Z,18.37
2023-05-20T19:13:53.591Z,18.36
2023-05-20T19:16:21.599Z,18.34
2023-05-20T19:18:49.361Z,18.32
2023-05-20T19:21:17.037Z,18.29
2023-05-20T19:23:44.752Z,18.28
2023-05-20T19:26:12.420Z,18.27
2023-05-20T19:28:40.087Z,18.31
2023-05-20T19:31:07.848Z,18.30
2023-05-20T19:33:35.598Z,18.28
2023-05-20T19:36:03.270Z,18.27
2023-05-20T19:38:31.006Z,18.25
2023-05-20T19:40:58.676Z,18.22
2023-05-20T19:43:26.381Z,18.18
2023-05-20T19:45:54.111Z,18.17
2023-05-20T19:48:22.444Z,18.18
2023-05-20T19:50:50.183Z,18.15
2023-05-20T19:53:17.844Z,18.12
2023-05-20T19:55:45.607Z,18.10
2023-05-20T19:58:13.315Z,18.09
2023-05-20T20:00:40.996Z,18.07
2023-05-20T20:03:08.785Z,18.05
2023-05-20T20:05:37.069Z,18.04
2023-05-20T20:08:05.119Z,18.07
2023-05-20T20:10:34.524Z,18.04
2023-05-20T20:13:02.175Z,18.01
2023-05-20T20:15:31.909Z,17.99
2023-05-20T20:17:59.586Z,17.98
2023-05-20T20:20:27.862Z,17.96
2023-05-20T20:22:56.729Z,17.93
2023-05-20T20:25:26.916Z,17.92
2023-05-20T20:27:54.904Z,17.94
2023-05-20T20:30:23.080Z,17.93
2023-05-20T20:32:50.969Z,17.90
2023-05-20T20:35:18.808Z,17.89
2023-05-20T20:37:46.569Z,17.84
2023-05-20T20:40:14.438Z,17.79
2023-05-20T20:42:45.086Z,17.77
2023-05-20T20:45:13.157Z,17.79
2023-05-20T20:47:41.145Z,17.76
2023-05-20T20:50:09.185Z,17.73
2023-05-20T20:52:38.994Z,17.69
2023-05-20T20:55:06.966Z,17.67
2023-05-20T20:57:35.463Z,17.65
2023-05-20T21:00:07.620Z,17.64
2023-05-20T21:02:36.099Z,17.66
2023-05-20T21:05:03.960Z,17.64
2023-05-20T21:07:32.751Z,17.60
2023-05-20T21:10:00.818Z,17.58
2023-05-20T21:12:28.593Z,17.57
2023-05-20T21:14:57.530Z,17.55
2023-05-20T21:17:25.370Z,17.55
2023-05-20T21:19:54.950Z,17.58
2023-05-20T21:22:22.754Z,17.56
2023-05-20T21:24:50.578Z,17.54
2023-05-20T21:27:18.350Z,17.52
2023-05-20T21:29:46.336Z,17.50
2023-05-20T21:32:14.282Z,17.49
2023-05-20T21:34:42.149Z,17.53
2023-05-20T21:37:09.910Z,17.53
2023-05-20T21:39:39.113Z,17.51
2023-05-20T21:42:07.077Z,17.48
2023-05-20T21:44:34.849Z,17.45
2023-05-20T21:47:02.614Z,17.44
2023-05-20T21:49:30.371Z,17.45
2023-05-20T21:51:58.137Z,17.47
2023-05-20T21:54:25.901Z,17.45
2023-05-20T21:56:53.778Z,17.42
2023-05-20T21:59:21.533Z,17.41
2023-05-20T22:01:51.051Z,17.40
2023-05-20T22:04:19.738Z,17.40
2023-05-20T22:06:47.915Z,17.42
2023-05-20T22:09:15.662Z,17.41
2023-05-20T22:11:45.366Z,17.38
2023-05-20T22:14:16.402Z,17.36
2023-05-20T22:16:46.747Z,17.34
2023-05-20T22:19:15.430Z,17.31
2023-05-20T22:21:50.369Z,17.31
2023-05-20T22:24:19.038Z,17.27
2023-05-20T22:26:46.816Z,17.23
2023-05-20T22:29:14.666Z,17.20
2023-05-20T22:31:42.487Z,17.17
2023-05-20T22:34:10.515Z,17.13
2023-05-20T22:36:38.277Z,17.12
2023-05-20T22:39:07.282Z,17.10
2023-05-20T22:41:35.132Z,17.06
2023-05-20T22:44:02.899Z,17.04
2023-05-20T22:46:30.663Z,17.02
2023-05-20T22:49:01.817Z,17.00
2023-05-20T22:51:29.533Z,17.03
2023-05-20T22:53:57.352Z,17.03
2023-05-20T22:56:26.026Z,17.02
2023-05-20T22:58:53.819Z,17.01
2023-05-20T23:01:22.329Z,17.01
2023-05-20T23:03:51.786Z,17.01
2023-05-20T23:06:19.447Z,17.04
2023-05-20T23:08:47.609Z,17.00
2023-05-20T23:11:15.274Z,16.96
2023-05-20T23:13:42.949Z,16.96
2023-05-20T23:16:10.935Z,16.94
2023-05-20T23:18:38.634Z,16.92
2023-05-20T23:21:06.425Z,16.93
2023-05-20T23:23:34.189Z,16.91
2023-05-20T23:26:02.002Z,16.88
2023-05-20T23:28:29.928Z,16.85
2023-05-20T23:30:57.689Z,16.81
2023-05-20T23:33:25.865Z,16.78
2023-05-20T23:35:53.729Z,16.80
2023-05-20T23:38:21.807Z,16.79
2023-05-20T23:40:49.684Z,16.78
2023-05-20T23:43:17.489Z,16.76
2023-05-20T23:45:45.287Z,16.74
2023-05-20T23:48:13.842Z,16.73
2023-05-20T23:50:41.730Z,16.74
2023-05-20T23:53:09.612Z,16.71
2023-05-20T23:55:37.815Z,16.69
2023-05-20T23:58:05.659Z,16.67
